Chloride, AZ (86431)

5:42 PM MST on February 11, 2016 (GMT -0700)
Redwing Canyon | | Change Station
CLOSE
Current Station
Personal Weather Station
Location: Kingman, AZ
Elevation: 4026 ft
Nearby Weather Stations

Elev 4026 ft 35.37 °N, 114.07 °W | Updated 8 minutes ago

Clear
Clear
64.2 °F
Feels Like 64.2 °F
N
1.1
Wind Variable Wind from West

Today
High -- | Low -- °F
--% Chance of Precip.
Yesterday
High -- | Low -- °F
Precip. -- in
Pressure 30.09 in
Visibility -9999.0 miles
Clouds Clear
Dew Point 28 °F
Humidity 25%
Rainfall 0.00 in
Snow Depth Not available.
7:27 AM 6:14 PM
Waxing Crescent, 15% visible
METAR KIGM 112351Z AUTO 01005KT CLR 23/M06 A3021 RMK AO2 SLP188 T02281061 10239 20156 55005 $
Pressure 30.09 in
Visibility -9999.0 miles
Clouds Clear
Dew Point 28 °F
Humidity 25%
Rainfall 0.00 in
Snow Depth Not available.
7:27 AM 6:14 PM
Waxing Crescent, 15% visible
METAR KIGM 112351Z AUTO 01005KT CLR 23/M06 A3021 RMK AO2 SLP188 T02281061 10239 20156 55005 $

10-Day Weather Forecast

Almanac

Astronomy

Feb. 11, 2016 Rise Set
Actual Time
Civil Twilight
Nautical Twilight
Astronomical Twilight
Moon
Length of Visible Light
Length of Day
Tomorrow will be .
, % of the Moon is Illuminated

Today's Extremes

State Highs State Lows

Community

WunderPhotos

Upload Photos

1,892,195 photos uploaded!

WunderBlog® & News

Nearby

Air Quality

  Air Quality AQ Index Pollutant
Not available.

Snow Depth

Station Depth Elevation

Earthquake Activity

City Distance Mag. Time & Date
Minimum magnitude displayed is 2.5.

Coastal Water Temperatures

Place Temperature

Stations

Nearby Weather Stations

Station Location Temp. Windchill Dew Point Humidity Wind Precip. Elev Updated Type
                   

Watches & Warnings

There are currently no watches in effect.